createdAt,value
2023-03-15T00:01:04.172Z,95844.88
2023-03-15T00:02:35.911Z,95863.38
2023-03-15T00:04:07.751Z,95858.84
2023-03-15T00:05:42.062Z,95853.91
2023-03-15T00:07:13.797Z,95859.47
2023-03-15T00:08:48.196Z,95859.81
2023-03-15T00:10:19.925Z,95854.69
2023-03-15T00:11:54.650Z,95851.25
2023-03-15T00:13:26.373Z,95858.41
2023-03-15T00:14:58.190Z,95843.66
2023-03-15T00:16:29.847Z,95844.59
2023-03-15T00:18:03.261Z,95848.31
2023-03-15T00:19:34.914Z,95842.25
2023-03-15T00:21:06.651Z,95858.22
2023-03-15T00:22:38.311Z,95868.16
2023-03-15T00:24:10.587Z,95875.75
2023-03-15T00:25:44.354Z,95871.88
2023-03-15T00:27:17.448Z,95880.41
2023-03-15T00:28:49.119Z,95879.31
2023-03-15T00:30:20.862Z,95890.81
2023-03-15T00:31:52.484Z,95883.22
2023-03-15T00:33:24.116Z,95880.41
2023-03-15T00:34:55.943Z,95888.63
2023-03-15T00:36:27.672Z,95885.25
2023-03-15T00:37:59.572Z,95891.91
2023-03-15T00:39:31.268Z,95901.81
2023-03-15T00:41:06.289Z,95905.38
2023-03-15T00:42:39.421Z,95903.38
2023-03-15T00:44:11.054Z,95901.19
2023-03-15T00:45:45.282Z,95903.22
2023-03-15T00:47:16.913Z,95903.06
2023-03-15T00:48:49.093Z,95906.19
2023-03-15T00:50:20.825Z,95909.09
2023-03-15T00:51:54.868Z,95910.81
2023-03-15T00:53:26.662Z,95915.00
2023-03-15T00:54:58.290Z,95910.03
2023-03-15T00:56:30.715Z,95909.56
2023-03-15T00:58:03.705Z,95913.75
2023-03-15T00:59:35.574Z,95932.53
2023-03-15T01:01:07.621Z,95931.28
2023-03-15T01:02:39.345Z,95937.03
2023-03-15T01:04:12.106Z,95943.69
2023-03-15T01:05:43.807Z,95950.25
2023-03-15T01:07:15.432Z,95955.78
2023-03-15T01:08:47.108Z,95964.31
2023-03-15T01:10:18.955Z,95973.47
2023-03-15T01:11:50.794Z,95975.94
2023-03-15T01:13:23.844Z,95974.41
2023-03-15T01:14:55.713Z,95984.03
2023-03-15T01:16:27.516Z,95993.16
2023-03-15T01:17:59.208Z,95992.53
2023-03-15T01:19:30.911Z,95991.63
2023-03-15T01:21:02.611Z,95992.53
2023-03-15T01:22:34.343Z,95994.56
2023-03-15T01:24:06.405Z,95998.75
2023-03-15T01:25:38.071Z,96005.88
2023-03-15T01:27:09.726Z,96010.06
2023-03-15T01:28:42.839Z,96020.63
2023-03-15T01:30:14.520Z,96024.50
2023-03-15T01:31:46.214Z,96021.25
2023-03-15T01:33:18.172Z,96031.47
2023-03-15T01:34:49.791Z,96045.28
2023-03-15T01:36:21.383Z,96050.38
2023-03-15T01:37:53.075Z,96053.94
2023-03-15T01:39:24.754Z,96063.84
2023-03-15T01:40:56.490Z,96064.00
2023-03-15T01:42:28.193Z,96072.78
2023-03-15T01:44:01.198Z,96070.94
2023-03-15T01:46:00.260Z,96076.19
2023-03-15T01:47:32.851Z,96081.47
2023-03-15T01:49:06.414Z,96089.22
2023-03-15T01:50:38.071Z,96090.94
2023-03-15T01:52:13.046Z,96105.78
2023-03-15T01:53:47.241Z,96104.22
2023-03-15T01:55:19.662Z,96105.47
2023-03-15T01:56:52.840Z,96115.22
2023-03-15T01:58:24.610Z,96111.78
2023-03-15T01:59:59.675Z,96121.47
2023-03-15T02:01:31.440Z,96127.81
2023-03-15T02:03:04.804Z,96119.81
2023-03-15T02:04:38.039Z,96119.69
2023-03-15T02:06:09.673Z,96125.56
2023-03-15T02:07:49.696Z,96132.97
2023-03-15T02:09:22.120Z,96137.47
2023-03-15T02:10:54.283Z,96135.59
2023-03-15T02:12:26.600Z,96140.25
2023-03-15T02:13:58.349Z,96153.06
2023-03-15T02:15:31.469Z,96139.88
2023-03-15T02:17:03.166Z,96157.72
2023-03-15T02:18:35.873Z,96157.59
2023-03-15T02:20:14.725Z,96148.13
2023-03-15T02:21:48.533Z,96151.91
2023-03-15T02:23:20.855Z,96149.63
2023-03-15T02:24:54.800Z,96152.81
2023-03-15T02:26:29.054Z,96147.66
2023-03-15T02:28:02.808Z,96140.31
2023-03-15T02:29:34.500Z,96151.75
2023-03-15T02:31:06.228Z,96147.84
2023-03-15T02:32:37.852Z,96156.16
2023-03-15T02:34:09.734Z,96160.41
2023-03-15T02:35:41.586Z,96162.19
2023-03-15T02:37:13.192Z,96155.34
2023-03-15T02:38:44.922Z,96162.75
2023-03-15T02:40:18.125Z,96164.88
2023-03-15T02:41:51.331Z,96170.94
2023-03-15T02:43:25.520Z,96179.91
2023-03-15T02:44:57.192Z,96183.50
2023-03-15T02:46:29.066Z,96188.09
2023-03-15T02:48:00.714Z,96191.47
2023-03-15T02:49:34.616Z,96189.72
2023-03-15T02:51:06.590Z,96186.66
2023-03-15T02:52:38.402Z,96193.81
2023-03-15T02:54:10.100Z,96203.72
2023-03-15T02:55:41.754Z,96204.31
2023-03-15T02:57:14.355Z,96211.25
2023-03-15T02:58:47.437Z,96212.41
2023-03-15T03:00:19.725Z,96213.66
2023-03-15T03:01:51.680Z,96217.16
2023-03-15T03:03:23.376Z,96215.19
2023-03-15T03:04:55.049Z,96218.44
2023-03-15T03:06:26.716Z,96217.13
2023-03-15T03:07:58.758Z,96226.56
2023-03-15T03:09:30.600Z,96230.41
2023-03-15T03:11:02.244Z,96227.06
2023-03-15T03:12:34.004Z,96222.09
2023-03-15T03:14:07.043Z,96231.75
2023-03-15T03:15:38.689Z,96229.13
2023-03-15T03:17:10.415Z,96235.78
2023-03-15T03:18:42.217Z,96226.78
2023-03-15T03:20:14.531Z,96230.97
2023-03-15T03:21:46.161Z,96238.38
2023-03-15T03:23:18.108Z,96237.91
2023-03-15T03:24:49.912Z,96241.22
2023-03-15T03:26:21.796Z,96242.28
2023-03-15T03:27:57.130Z,96234.38
2023-03-15T03:29:30.232Z,96237.78
2023-03-15T03:31:01.858Z,96251.59
2023-03-15T03:32:33.700Z,96251.81
2023-03-15T03:34:05.459Z,96246.16
2023-03-15T03:35:37.119Z,96251.16
2023-03-15T03:37:08.936Z,96259.91
2023-03-15T03:38:41.382Z,96259.22
2023-03-15T03:40:13.444Z,96267.41
2023-03-15T03:41:45.133Z,96262.63
2023-03-15T03:43:16.791Z,96253.56
2023-03-15T03:44:50.755Z,96266.81
2023-03-15T03:46:22.507Z,96265.84
2023-03-15T03:47:54.176Z,96261.38
2023-03-15T03:49:26.003Z,96266.53
2023-03-15T03:50:57.703Z,96274.59
2023-03-15T03:52:29.426Z,96273.63
2023-03-15T03:54:01.159Z,96270.47
2023-03-15T03:55:34.195Z,96278.75
2023-03-15T03:57:05.871Z,96277.88
2023-03-15T03:58:37.578Z,96283.75
2023-03-15T04:00:14.418Z,96293.50
2023-03-15T04:01:46.161Z,96294.22
2023-03-15T04:03:17.802Z,96293.06
2023-03-15T04:04:50.439Z,96290.88
2023-03-15T04:06:22.603Z,96301.00
2023-03-15T04:07:54.246Z,96293.13
2023-03-15T04:09:25.931Z,96297.88
2023-03-15T04:10:57.745Z,96290.78
2023-03-15T04:12:29.475Z,96302.78
2023-03-15T04:14:01.197Z,96303.25
2023-03-15T04:15:34.373Z,96306.94
2023-03-15T04:17:06.082Z,96310.69
2023-03-15T04:18:37.732Z,96310.28
2023-03-15T04:20:13.044Z,96318.34
2023-03-15T04:21:47.290Z,96316.31
2023-03-15T04:23:19.316Z,96315.72
2023-03-15T04:24:51.000Z,96316.56
2023-03-15T04:26:26.452Z,96323.59
2023-03-15T04:28:03.009Z,96324.78
2023-03-15T04:29:34.672Z,96324.00
2023-03-15T04:31:10.591Z,96320.69
2023-03-15T04:32:42.523Z,96325.75
2023-03-15T04:34:14.237Z,96321.94
2023-03-15T04:35:46.001Z,96332.94
2023-03-15T04:37:17.826Z,96327.28
2023-03-15T04:38:49.588Z,96333.16
2023-03-15T04:40:24.254Z,96338.56
2023-03-15T04:41:55.868Z,96334.47
2023-03-15T04:43:27.478Z,96342.28
2023-03-15T04:44:59.125Z,96349.75
2023-03-15T04:46:32.386Z,96348.69
2023-03-15T04:48:04.209Z,96358.13
2023-03-15T04:49:35.823Z,96350.06
2023-03-15T04:51:07.453Z,96357.84
2023-03-15T04:52:39.121Z,96362.38
2023-03-15T04:54:10.961Z,96367.97
2023-03-15T04:55:42.784Z,96361.66
2023-03-15T04:57:14.457Z,96357.53
2023-03-15T04:58:46.147Z,96370.59
2023-03-15T05:00:18.634Z,96374.81
2023-03-15T05:01:51.745Z,96368.91
2023-03-15T05:03:23.362Z,96375.09
2023-03-15T05:04:55.010Z,96375.31
2023-03-15T05:06:27.867Z,96376.22
2023-03-15T05:07:59.481Z,96372.13
2023-03-15T05:09:39.715Z,96374.88
2023-03-15T05:11:12.210Z,96373.59
2023-03-15T05:12:51.539Z,96382.03
2023-03-15T05:14:31.457Z,96382.41
2023-03-15T05:16:12.092Z,96383.59
2023-03-15T05:17:46.462Z,96383.09
2023-03-15T05:19:18.146Z,96387.38
2023-03-15T05:20:59.090Z,96391.00
2023-03-15T05:22:34.227Z,96394.53
2023-03-15T05:24:06.501Z,96392.13
2023-03-15T05:25:38.835Z,96396.56
2023-03-15T05:27:18.507Z,96401.34
2023-03-15T05:28:50.199Z,96405.75
2023-03-15T05:30:25.562Z,96414.97
2023-03-15T05:31:57.250Z,96412.72
2023-03-15T05:33:31.546Z,96410.22
2023-03-15T05:35:04.012Z,96411.00
2023-03-15T05:36:35.788Z,96419.47
2023-03-15T05:38:07.498Z,96422.28
2023-03-15T05:39:39.533Z,96422.31
2023-03-15T05:41:11.387Z,96418.53
2023-03-15T05:42:43.840Z,96418.97
2023-03-15T05:44:29.748Z,96420.16
2023-03-15T05:46:01.458Z,96428.06
2023-03-15T05:47:35.062Z,96430.69
2023-03-15T05:49:08.303Z,96420.66
2023-03-15T05:50:40.008Z,96426.97
2023-03-15T05:52:12.032Z,96424.78
2023-03-15T05:53:45.319Z,96433.03
2023-03-15T05:55:17.970Z,96426.91
2023-03-15T05:56:49.674Z,96436.63
2023-03-15T05:58:21.330Z,96435.78
2023-03-15T06:00:00.731Z,96442.19
2023-03-15T06:03:41.425Z,96435.84
2023-03-15T06:05:18.593Z,96441.81
2023-03-15T06:06:50.568Z,96446.38
2023-03-15T06:08:28.094Z,96445.53
2023-03-15T06:09:59.826Z,96450.75
2023-03-15T06:11:31.524Z,96448.13
2023-03-15T06:13:03.138Z,96450.06
2023-03-15T06:14:34.846Z,96455.81
2023-03-15T06:16:07.140Z,96447.94
2023-03-15T06:17:38.976Z,96447.13
2023-03-15T06:19:10.605Z,96450.91
2023-03-15T06:20:46.451Z,96446.06
2023-03-15T06:22:20.576Z,96448.00
2023-03-15T06:23:52.240Z,96451.03
2023-03-15T06:25:24.089Z,96448.69
2023-03-15T06:26:56.265Z,96443.38
2023-03-15T06:28:28.003Z,96447.78
2023-03-15T06:30:00.002Z,96455.94
2023-03-15T06:31:31.901Z,96450.91
2023-03-15T06:33:03.923Z,96450.69
2023-03-15T06:34:37.663Z,96451.69
2023-03-15T06:36:11.827Z,96455.59
2023-03-15T06:37:43.746Z,96457.16
2023-03-15T06:39:15.803Z,96460.06
2023-03-15T06:40:47.703Z,96454.47
2023-03-15T06:42:19.427Z,96466.16
2023-03-15T06:43:51.296Z,96462.97
2023-03-15T06:45:23.091Z,96466.41
2023-03-15T06:46:54.866Z,96462.75
2023-03-15T06:48:26.779Z,96464.38
2023-03-15T06:49:58.582Z,96463.84
2023-03-15T06:51:31.773Z,96463.31
2023-03-15T06:53:03.791Z,96461.88
2023-03-15T06:54:35.913Z,96467.66
2023-03-15T06:56:08.245Z,96469.00
2023-03-15T06:57:41.495Z,96459.69
2023-03-15T06:59:14.828Z,96468.06
2023-03-15T07:00:48.622Z,96469.63
2023-03-15T07:02:21.304Z,96461.47
2023-03-15T07:03:53.512Z,96471.56
2023-03-15T07:05:25.502Z,96472.69
2023-03-15T07:07:01.888Z,96477.31
2023-03-15T07:08:33.765Z,96459.81
2023-03-15T07:10:06.134Z,96466.84
2023-03-15T07:11:38.595Z,96466.66
2023-03-15T07:13:10.446Z,96472.91
2023-03-15T07:14:42.171Z,96468.38
2023-03-15T07:16:13.863Z,96468.28
2023-03-15T07:17:45.703Z,96468.63
2023-03-15T07:19:17.478Z,96470.78
2023-03-15T07:20:55.942Z,96472.75
2023-03-15T07:22:29.291Z,96476.13
2023-03-15T07:24:01.142Z,96476.03
2023-03-15T07:25:37.635Z,96482.91
2023-03-15T07:27:28.568Z,96475.34
2023-03-15T07:29:06.613Z,96481.28
2023-03-15T07:30:38.938Z,96480.06
2023-03-15T07:32:10.998Z,96484.19
2023-03-15T07:33:42.878Z,96487.28
2023-03-15T07:35:15.245Z,96489.44
2023-03-15T07:36:47.154Z,96492.47
2023-03-15T07:38:22.292Z,96491.88
2023-03-15T07:39:54.375Z,96492.53
2023-03-15T07:41:26.338Z,96490.78
2023-03-15T07:42:58.101Z,96491.75
2023-03-15T07:44:40.952Z,96493.59
2023-03-15T07:46:12.800Z,96494.50
2023-03-15T07:47:46.152Z,96492.63
2023-03-15T07:49:18.302Z,96496.97
2023-03-15T07:50:50.732Z,96494.81
2023-03-15T07:52:22.626Z,96497.97
2023-03-15T07:53:56.018Z,96494.78
2023-03-15T07:55:28.096Z,96500.47
2023-03-15T07:57:00.460Z,96495.69
2023-03-15T07:58:32.558Z,96499.78
2023-03-15T08:00:06.256Z,96502.97
2023-03-15T08:01:46.558Z,96502.19
2023-03-15T08:03:21.887Z,96505.72
2023-03-15T08:04:54.047Z,96509.91
2023-03-15T08:06:28.078Z,96502.88
2023-03-15T08:08:03.736Z,96504.25
2023-03-15T08:09:38.150Z,96499.03
2023-03-15T08:11:09.959Z,96504.59
2023-03-15T08:12:43.132Z,96509.84
2023-03-15T08:14:15.386Z,96508.91
2023-03-15T08:15:47.782Z,96511.63
2023-03-15T08:17:19.886Z,96513.88
2023-03-15T08:18:51.681Z,96511.91
2023-03-15T08:20:23.795Z,96512.59
2023-03-15T08:21:55.524Z,96510.66
2023-03-15T08:23:27.500Z,96511.44
2023-03-15T08:25:01.066Z,96510.38
2023-03-15T08:26:33.027Z,96510.84
2023-03-15T08:28:05.560Z,96507.25
2023-03-15T08:29:43.701Z,96508.13
2023-03-15T08:31:17.814Z,96498.75
2023-03-15T08:32:50.319Z,96509.69
2023-03-15T08:34:25.638Z,96514.38
2023-03-15T08:35:57.993Z,96502.47
2023-03-15T08:37:30.112Z,96509.78
2023-03-15T08:39:04.524Z,96504.47
2023-03-15T08:40:39.981Z,96502.59
2023-03-15T08:42:18.576Z,96493.50
2023-03-15T08:43:51.078Z,96512.16
2023-03-15T08:45:25.348Z,96510.00
2023-03-15T08:46:57.482Z,96500.66
2023-03-15T08:48:33.161Z,96505.22
2023-03-15T08:50:10.875Z,96506.81
2023-03-15T08:51:42.695Z,96498.41
2023-03-15T08:53:16.424Z,96504.66
2023-03-15T08:54:48.470Z,96506.00
2023-03-15T08:56:21.714Z,96504.44
2023-03-15T08:57:53.887Z,96511.28
2023-03-15T08:59:31.838Z,96505.03
2023-03-15T09:01:05.053Z,96511.09
2023-03-15T09:02:37.175Z,96510.41
2023-03-15T09:04:09.373Z,96507.19
2023-03-15T09:05:41.282Z,96511.38
2023-03-15T09:07:15.213Z,96509.59
2023-03-15T09:08:47.936Z,96505.31
2023-03-15T09:10:22.517Z,96501.59
2023-03-15T09:11:58.999Z,96504.06
2023-03-15T09:13:30.957Z,96501.59
2023-03-15T09:15:02.959Z,96501.88
2023-03-15T09:16:35.063Z,96500.00
2023-03-15T09:18:10.221Z,96509.06
2023-03-15T09:19:42.081Z,96509.66
2023-03-15T09:21:16.575Z,96503.88
2023-03-15T09:22:50.686Z,96509.06
2023-03-15T09:24:28.545Z,96503.91
2023-03-15T09:26:03.701Z,96508.41
2023-03-15T09:27:38.523Z,96508.16
2023-03-15T09:29:10.970Z,96515.72
2023-03-15T09:30:43.347Z,96515.97
2023-03-15T09:32:16.110Z,96517.47
2023-03-15T09:33:48.052Z,96514.22
2023-03-15T09:35:20.233Z,96518.13
2023-03-15T09:36:53.216Z,96519.59
2023-03-15T09:38:24.957Z,96523.88
2023-03-15T09:39:56.683Z,96511.47
2023-03-15T09:41:38.072Z,96514.13
2023-03-15T09:43:22.731Z,96523.44
2023-03-15T09:44:57.456Z,96519.91
2023-03-15T09:46:30.320Z,96526.00
2023-03-15T09:48:05.389Z,96518.47
2023-03-15T09:49:41.621Z,96521.94
2023-03-15T09:51:14.871Z,96520.94
2023-03-15T09:52:47.238Z,96529.13
2023-03-15T09:54:20.622Z,96519.56
2023-03-15T09:55:52.580Z,96521.41
2023-03-15T09:57:25.969Z,96531.50
2023-03-15T09:59:03.992Z,96521.66
2023-03-15T10:00:39.323Z,96525.78
2023-03-15T10:02:16.817Z,96525.75
2023-03-15T10:03:49.446Z,96530.53
2023-03-15T10:05:23.345Z,96524.50
2023-03-15T10:06:56.543Z,96530.09
2023-03-15T10:08:28.505Z,96536.53
2023-03-15T10:10:00.362Z,96532.31
2023-03-15T10:11:35.317Z,96527.41
2023-03-15T10:13:18.608Z,96527.88
2023-03-15T10:15:00.162Z,96534.09
2023-03-15T10:16:37.094Z,96530.09
2023-03-15T10:18:28.791Z,96537.00
2023-03-15T10:20:03.471Z,96535.88
2023-03-15T10:21:39.263Z,96541.88
2023-03-15T10:23:13.159Z,96529.28
2023-03-15T10:24:46.618Z,96526.34
2023-03-15T10:26:21.181Z,96528.44
2023-03-15T10:27:54.319Z,96519.50
2023-03-15T10:29:27.018Z,96526.50
2023-03-15T10:31:13.850Z,96521.09
2023-03-15T10:32:52.465Z,96516.38
2023-03-15T10:34:26.176Z,96511.03
2023-03-15T10:36:11.423Z,96514.03
2023-03-15T10:37:43.652Z,96515.84
2023-03-15T10:39:15.714Z,96513.28
2023-03-15T10:40:48.324Z,96509.72
2023-03-15T10:42:30.504Z,96508.53
2023-03-15T10:44:03.265Z,96510.41
2023-03-15T10:45:35.373Z,96501.09
2023-03-15T10:47:23.204Z,96506.25
2023-03-15T10:48:58.775Z,96507.50
2023-03-15T10:50:32.433Z,96512.47
2023-03-15T10:52:06.602Z,96505.63
2023-03-15T10:53:41.878Z,96508.44
2023-03-15T10:55:15.608Z,96502.19
2023-03-15T10:56:48.153Z,96497.22
2023-03-15T10:58:22.656Z,96507.03
2023-03-15T10:59:57.663Z,96498.44
2023-03-15T11:01:34.739Z,96491.28
2023-03-15T11:03:21.965Z,96491.59
2023-03-15T11:05:03.804Z,96494.78
2023-03-15T11:06:42.868Z,96490.50
2023-03-15T11:08:16.600Z,96493.28
2023-03-15T11:09:52.969Z,96488.44
2023-03-15T11:11:27.222Z,96490.41
2023-03-15T11:13:20.600Z,96491.69
2023-03-15T11:14:53.636Z,96488.41
2023-03-15T11:16:25.423Z,96485.34
2023-03-15T11:17:57.715Z,96484.78
2023-03-15T11:19:31.959Z,96490.13
2023-03-15T11:21:05.848Z,96488.41
2023-03-15T11:22:37.619Z,96486.75
2023-03-15T11:24:16.564Z,96490.53
2023-03-15T11:26:06.776Z,96487.25
2023-03-15T11:27:43.503Z,96487.00
2023-03-15T11:29:24.788Z,96484.16
2023-03-15T11:31:07.264Z,96475.53
2023-03-15T11:32:44.718Z,96476.78
2023-03-15T11:34:29.209Z,96484.94
2023-03-15T11:36:05.840Z,96474.53
2023-03-15T11:37:48.187Z,96481.41
2023-03-15T11:39:28.456Z,96476.22
2023-03-15T11:41:33.307Z,96467.25
2023-03-15T11:45:35.033Z,96461.94
2023-03-15T11:47:17.217Z,96461.53
2023-03-15T11:48:56.676Z,96467.09
2023-03-15T11:50:30.414Z,96467.31
2023-03-15T11:52:03.998Z,96461.34
2023-03-15T11:53:37.650Z,96461.13
2023-03-15T11:55:16.359Z,96474.41
2023-03-15T11:56:53.297Z,96457.47
2023-03-15T11:58:29.472Z,96463.66
2023-03-15T12:00:17.210Z,96453.41
2023-03-15T12:01:59.157Z,96457.66
2023-03-15T12:03:41.763Z,96451.09
2023-03-15T12:05:49.200Z,96454.88
2023-03-15T12:07:55.063Z,96441.63
2023-03-15T12:09:48.797Z,96443.03
2023-03-15T12:11:42.978Z,96437.28
2023-03-15T12:13:30.639Z,96444.91
2023-03-15T12:15:04.099Z,96436.94
2023-03-15T12:16:41.047Z,96439.28
2023-03-15T12:18:27.750Z,96435.84
2023-03-15T12:19:59.750Z,96433.22
2023-03-15T12:21:47.690Z,96429.31
2023-03-15T12:24:28.917Z,96431.84
2023-03-15T12:26:22.074Z,96433.50
2023-03-15T12:27:54.892Z,96424.81
2023-03-15T12:30:06.720Z,96429.25
2023-03-15T12:31:55.784Z,96427.38
2023-03-15T12:33:49.954Z,96430.59
2023-03-15T12:35:27.303Z,96430.47
2023-03-15T12:37:22.870Z,96431.06
2023-03-15T12:39:01.582Z,96433.59
2023-03-15T12:40:53.259Z,96428.69
2023-03-15T12:43:01.629Z,96428.66
2023-03-15T12:44:40.089Z,96424.41
2023-03-15T12:47:15.453Z,96425.88
2023-03-15T12:49:21.332Z,96426.41
2023-03-15T12:51:05.896Z,96423.06
2023-03-15T12:52:41.540Z,96423.41
2023-03-15T12:54:14.132Z,96418.09
2023-03-15T12:55:45.989Z,96423.38
2023-03-15T12:57:19.578Z,96416.69
2023-03-15T12:58:54.276Z,96416.53
2023-03-15T13:00:27.383Z,96425.31
2023-03-15T13:01:59.553Z,96429.88
2023-03-15T13:03:37.180Z,96428.06
2023-03-15T13:05:18.088Z,96428.06
2023-03-15T13:07:09.785Z,96425.97
2023-03-15T13:08:51.063Z,96425.13
2023-03-15T13:10:37.864Z,96436.78
2023-03-15T13:12:12.095Z,96435.91
2023-03-15T13:14:03.958Z,96433.31
2023-03-15T13:15:43.197Z,96440.34
2023-03-15T13:17:22.870Z,96426.94
2023-03-15T13:18:59.239Z,96419.06
2023-03-15T13:20:52.649Z,96420.91
2023-03-15T13:22:32.097Z,96420.75
2023-03-15T13:24:17.280Z,96425.81
2023-03-15T13:26:02.952Z,96424.06
2023-03-15T13:27:52.395Z,96429.91
2023-03-15T13:29:29.451Z,96423.78
2023-03-15T13:31:01.236Z,96417.09
2023-03-15T13:32:33.049Z,96414.53
2023-03-15T13:34:11.472Z,96420.38
2023-03-15T13:35:43.989Z,96420.28
2023-03-15T13:37:16.637Z,96429.34
2023-03-15T13:38:49.377Z,96416.69
2023-03-15T13:40:22.781Z,96418.88
2023-03-15T13:41:58.221Z,96423.19
2023-03-15T13:43:31.030Z,96426.19
2023-03-15T13:45:14.772Z,96425.66
2023-03-15T13:46:47.562Z,96419.50
2023-03-15T13:48:19.308Z,96422.09
2023-03-15T13:49:51.954Z,96422.34
2023-03-15T13:51:24.475Z,96427.94
2023-03-15T13:52:56.504Z,96417.66
2023-03-15T13:54:29.786Z,96408.78
2023-03-15T13:56:01.646Z,96422.72
2023-03-15T13:57:33.383Z,96411.53
2023-03-15T13:59:05.245Z,96418.28
2023-03-15T14:00:38.215Z,96417.16
2023-03-15T14:02:13.242Z,96424.94
2023-03-15T14:03:47.938Z,96418.19
2023-03-15T14:05:27.183Z,96421.03
2023-03-15T14:07:09.167Z,96419.00
2023-03-15T14:08:40.803Z,96410.63
2023-03-15T14:10:28.099Z,96418.28
2023-03-15T14:12:03.311Z,96413.66
2023-03-15T14:13:35.565Z,96420.44
2023-03-15T14:15:14.738Z,96419.75
2023-03-15T14:17:03.747Z,96422.03
2023-03-15T14:18:36.764Z,96414.78
2023-03-15T14:20:14.838Z,96419.22
2023-03-15T14:21:48.918Z,96414.84
2023-03-15T14:23:22.741Z,96427.06
2023-03-15T14:24:54.370Z,96409.81
2023-03-15T14:26:27.773Z,96415.00
2023-03-15T14:28:01.762Z,96410.78
2023-03-15T14:29:34.352Z,96406.78
2023-03-15T14:31:06.444Z,96412.03
2023-03-15T14:32:40.253Z,96415.03
2023-03-15T14:34:23.874Z,96417.56
2023-03-15T14:35:58.698Z,96408.66
2023-03-15T14:37:32.874Z,96406.25
2023-03-15T14:39:06.106Z,96405.66
2023-03-15T14:40:38.633Z,96405.16
2023-03-15T14:42:11.256Z,96415.22
2023-03-15T14:43:42.874Z,96401.44
2023-03-15T14:45:14.675Z,96397.84
2023-03-15T14:46:48.899Z,96399.81
2023-03-15T14:48:24.161Z,96410.41
2023-03-15T14:49:55.806Z,96411.41
2023-03-15T14:51:28.396Z,96413.59
2023-03-15T14:53:00.399Z,96414.88
2023-03-15T14:54:32.508Z,96421.28
2023-03-15T14:56:04.695Z,96416.50
2023-03-15T14:57:36.391Z,96411.53
2023-03-15T14:59:12.164Z,96409.66
2023-03-15T15:00:44.825Z,96405.75
2023-03-15T15:02:17.242Z,96410.72
2023-03-15T15:03:51.562Z,96415.88
2023-03-15T15:05:24.672Z,96400.81
2023-03-15T15:06:56.512Z,96408.06
2023-03-15T15:08:28.576Z,96404.28
2023-03-15T15:10:00.352Z,96407.97
2023-03-15T15:11:32.222Z,96411.81
2023-03-15T15:13:07.069Z,96409.97
2023-03-15T15:14:41.891Z,96404.66
2023-03-15T15:16:15.594Z,96407.97
2023-03-15T15:17:47.332Z,96403.00
2023-03-15T15:19:22.630Z,96408.84
2023-03-15T15:20:58.655Z,96400.09
2023-03-15T15:22:30.316Z,96403.78
2023-03-15T15:24:02.338Z,96396.16
2023-03-15T15:25:35.479Z,96392.44
2023-03-15T15:27:09.574Z,96395.22
2023-03-15T15:28:42.277Z,96403.75
2023-03-15T15:30:16.312Z,96400.19
2023-03-15T15:31:48.296Z,96398.59
2023-03-15T15:33:20.377Z,96399.28
2023-03-15T15:34:59.137Z,96398.19
2023-03-15T15:36:32.693Z,96408.16
2023-03-15T15:38:08.069Z,96402.50
2023-03-15T15:39:40.923Z,96400.22
2023-03-15T15:41:13.875Z,96394.06
2023-03-15T15:42:45.500Z,96401.25
2023-03-15T15:44:18.160Z,96406.25
2023-03-15T15:45:49.777Z,96409.31
2023-03-15T15:47:22.533Z,96406.41
2023-03-15T15:48:54.774Z,96410.28
2023-03-15T15:50:28.053Z,96417.06
2023-03-15T15:51:59.708Z,96418.25
2023-03-15T15:53:31.912Z,96427.47
2023-03-15T15:55:05.665Z,96421.28
2023-03-15T15:56:40.083Z,96430.13
2023-03-15T15:58:12.040Z,96427.91
2023-03-15T15:59:44.620Z,96428.00
2023-03-15T16:01:16.392Z,96435.66
2023-03-15T16:02:48.133Z,96435.00
2023-03-15T16:04:19.754Z,96431.44
2023-03-15T16:05:52.896Z,96440.53
2023-03-15T16:07:30.881Z,96436.59
2023-03-15T16:09:03.089Z,96431.41
2023-03-15T16:10:35.184Z,96440.69
2023-03-15T16:12:12.230Z,96438.16
2023-03-15T16:13:45.161Z,96436.31
2023-03-15T16:15:17.407Z,96440.09
2023-03-15T16:16:51.203Z,96439.97
2023-03-15T16:18:22.916Z,96447.84
2023-03-15T16:19:54.786Z,96451.91
2023-03-15T16:21:33.650Z,96443.44
2023-03-15T16:23:05.436Z,96444.69
2023-03-15T16:24:39.198Z,96454.41
2023-03-15T16:28:02.049Z,96450.78
2023-03-15T16:29:36.553Z,96458.50
2023-03-15T16:31:08.383Z,96460.09
2023-03-15T16:32:44.550Z,96465.56
2023-03-15T16:34:17.703Z,96463.16
2023-03-15T16:35:50.275Z,96468.59
2023-03-15T16:37:24.689Z,96466.91
2023-03-15T16:38:56.279Z,96463.47
2023-03-15T16:40:28.886Z,96458.47
2023-03-15T16:42:00.583Z,96456.13
2023-03-15T16:43:32.630Z,96464.38
2023-03-15T16:45:08.706Z,96461.72
2023-03-15T16:46:40.565Z,96467.81
2023-03-15T16:48:12.535Z,96477.19
2023-03-15T16:49:44.243Z,96472.34
2023-03-15T16:51:16.012Z,96479.22
2023-03-15T16:52:50.099Z,96476.03
2023-03-15T16:54:38.237Z,96480.84
2023-03-15T16:56:13.322Z,96484.19
2023-03-15T16:57:45.345Z,96483.75
2023-03-15T16:59:17.488Z,96482.38
2023-03-15T17:00:49.436Z,96484.88
2023-03-15T17:02:22.117Z,96491.56
2023-03-15T17:03:53.858Z,96484.88
2023-03-15T17:05:25.623Z,96488.16
2023-03-15T17:06:57.248Z,96490.16
2023-03-15T17:08:30.389Z,96497.41
2023-03-15T17:10:04.237Z,96504.91
2023-03-15T17:11:36.965Z,96501.47
2023-03-15T17:13:09.221Z,96495.94
2023-03-15T17:14:41.740Z,96502.16
2023-03-15T17:16:15.171Z,96514.34
2023-03-15T17:17:47.168Z,96500.63
2023-03-15T17:19:18.778Z,96509.53
2023-03-15T17:20:50.465Z,96509.09
2023-03-15T17:22:22.189Z,96517.78
2023-03-15T17:23:55.129Z,96517.31
2023-03-15T17:25:26.807Z,96528.25
2023-03-15T17:26:58.502Z,96523.63
2023-03-15T17:28:30.823Z,96526.63
2023-03-15T17:30:02.549Z,96528.94
2023-03-15T17:31:34.496Z,96529.25
2023-03-15T17:33:06.610Z,96531.47
2023-03-15T17:34:38.373Z,96537.72
2023-03-15T17:36:10.645Z,96532.41
2023-03-15T17:37:45.107Z,96535.53
2023-03-15T17:39:18.174Z,96537.06
2023-03-15T17:40:49.952Z,96537.25
2023-03-15T17:42:21.634Z,96537.56
2023-03-15T17:43:53.279Z,96540.84
2023-03-15T17:45:26.022Z,96538.47
2023-03-15T17:46:58.959Z,96538.00
2023-03-15T17:48:30.582Z,96536.00
2023-03-15T17:50:02.155Z,96549.09
2023-03-15T17:51:34.428Z,96552.53
2023-03-15T17:53:07.686Z,96554.69
2023-03-15T17:54:40.669Z,96557.03
2023-03-15T17:56:12.265Z,96551.59
2023-03-15T17:57:54.052Z,96558.13
2023-03-15T17:59:26.523Z,96565.94
2023-03-15T18:00:58.155Z,96554.72
2023-03-15T18:02:32.237Z,96571.50
2023-03-15T18:04:04.779Z,96562.50
2023-03-15T18:05:36.449Z,96559.38
2023-03-15T18:07:08.146Z,96560.00
2023-03-15T18:08:39.845Z,96563.91
2023-03-15T18:10:13.727Z,96565.78
2023-03-15T18:11:46.271Z,96567.47
2023-03-15T18:13:21.870Z,96569.31
2023-03-15T18:14:53.500Z,96567.78
2023-03-15T18:16:26.861Z,96572.00
2023-03-15T18:17:58.438Z,96568.66
2023-03-15T18:19:30.033Z,96570.81
2023-03-15T18:21:01.694Z,96565.22
2023-03-15T18:22:33.275Z,96568.03
2023-03-15T18:24:05.373Z,96575.50
2023-03-15T18:25:38.427Z,96582.72
2023-03-15T18:27:11.034Z,96580.69
2023-03-15T18:28:42.758Z,96586.25
2023-03-15T18:30:15.879Z,96583.59
2023-03-15T18:31:47.579Z,96584.78
2023-03-15T18:33:20.506Z,96578.06
2023-03-15T18:34:52.116Z,96591.34
2023-03-15T18:36:23.737Z,96594.88
2023-03-15T18:37:57.401Z,96584.59